Cotes De Bretagne — FW3973 — position and weather

sailwx.info

Track history (hours):
 
Tides and Currents Weather Stations Pressure Air Temp Water Temp Dewpoint Dewpoint Depression Visibility Wind Speed Wind Dir Waves Ship Positions

Cotes De Bretagne

Last reported at 2017-Feb-24 12:33 UTC. Time now 2017-Feb-24 12:33 UTC.
Position N 46°30' W 001°48'.

Length 75 m; draft 4.2 m.

Type: Dredging. MMSI: 227003850.

Date/timePositionNaut miles runAvg speedWind from/ knotsBaromVisibWave heightAir tempDewpointWater temp
2017-Feb-24 12:33N 46°30' W 001°48'5 4.6
2017-Feb-24 11:33N 46°25' W 001°46'4 4.2
2017-Feb-24 10:33N 46°21' W 001°45'6 5.9
2017-Feb-24 09:33N 46°15' W 001°44'12 2.9
2017-Feb-24 05:33N 46°05' W 001°35'5 3.9
2017-Feb-24 04:22N 46°09' W 001°40'911.3
2017-Feb-24 03:33N 46°16' W 001°47'1111.4
2017-Feb-24 02:33N 46°26' W 001°57'1111.3
2017-Feb-24 01:33N 46°35' W 002°05'1211.5
2017-Feb-24 00:33N 46°44' W 002°15'2311.1
2017-Feb-23 22:27N 47°03' W 002°37'1010.8
2017-Feb-23 21:33N 47°10' W 002°46'1010.6
2017-Feb-23 20:33N 47°17' W 002°57'1111.0
2017-Feb-23 19:33N 47°23' W 003°11'1010.5
2017-Feb-23 18:34N 47°29' W 003°24'1110.7
2017-Feb-23 17:33N 47°36' W 003°36'1110.8
2017-Feb-23 16:33N 47°43' W 003°49'18 9.2
2017-Feb-23 14:33N 47°56' W 004°08'3 0.1
2017-Feb-22 14:33N 47°58' W 004°06'8 2.7
2017-Feb-22 11:33N 47°50' W 004°06'0 0.0
2017-Feb-22 10:33N 47°50' W 004°06'0 0.0
2017-Feb-22 02:33N 47°50' W 004°06'1 0.9
2017-Feb-22 01:33N 47°50' W 004°05'5 4.9
2017-Feb-22 00:34N 47°45' W 004°08'10 9.8
2017-Feb-21 23:33N 47°45' W 004°22'10 9.5
2017-Feb-21 22:32N 47°52' W 004°33'9 9.7
2017-Feb-21 21:34N 47°59' W 004°42'7 7.0
2017-Feb-21 20:34N 48°06' W 004°45'10 9.6
2017-Feb-21 19:34N 48°15' W 004°45'9 9.4
2017-Feb-21 18:34N 48°24' W 004°49'9 9.5
2017-Feb-21 17:33N 48°34' W 004°49'9 9.2
2017-Feb-21 16:34N 48°40' W 004°39'  
2017-Feb-19 03:14N 48°56' W 002°59'7 9.1
2017-Feb-19 02:30N 48°53' W 002°50'4 4.0
2017-Feb-19 01:29N 48°49' W 002°50'  
2017-Feb-14 17:16N 48°44' W 004°18'1013.5
2017-Feb-14 16:33N 48°42' W 004°33'1312.8
2017-Feb-14 15:33N 48°35' W 004°49'1212.3
2017-Feb-14 14:33N 48°23' W 004°49'1212.0
2017-Feb-14 13:33N 48°11' W 004°46'1211.8
2017-Feb-14 12:33N 47°59' W 004°42'  
Track history (hours):
 
Tides and Currents Weather Stations Pressure Air Temp Water Temp Dewpoint Dewpoint Depression Visibility Wind Speed Wind Dir Waves Ship Positions

Cotes De Bretagne

Last reported at 2017-Feb-24 12:33 UTC. Time now 2017-Feb-24 12:33 UTC.
Position N 46°30' W 001°48'.

Length 75 m; draft 4.2 m.

Type: Dredging. MMSI: 227003850.

Date/timePositionNaut miles runAvg speedWind from/ knotsBaromVisibWave heightAir tempDewpointWater temp
2017-Feb-24 12:33N 46°30' W 001°48'5 4.6
2017-Feb-24 11:33N 46°25' W 001°46'4 4.2
2017-Feb-24 10:33N 46°21' W 001°45'6 5.9
2017-Feb-24 09:33N 46°15' W 001°44'12 2.9
2017-Feb-24 05:33N 46°05' W 001°35'5 3.9
2017-Feb-24 04:22N 46°09' W 001°40'911.3
2017-Feb-24 03:33N 46°16' W 001°47'1111.4
2017-Feb-24 02:33N 46°26' W 001°57'1111.3
2017-Feb-24 01:33N 46°35' W 002°05'1211.5
2017-Feb-24 00:33N 46°44' W 002°15'2311.1
2017-Feb-23 22:27N 47°03' W 002°37'1010.8
2017-Feb-23 21:33N 47°10' W 002°46'1010.6
2017-Feb-23 20:33N 47°17' W 002°57'1111.0
2017-Feb-23 19:33N 47°23' W 003°11'1010.5
2017-Feb-23 18:34N 47°29' W 003°24'1110.7
2017-Feb-23 17:33N 47°36' W 003°36'1110.8
2017-Feb-23 16:33N 47°43' W 003°49'18 9.2
2017-Feb-23 14:33N 47°56' W 004°08'3 0.1
2017-Feb-22 14:33N 47°58' W 004°06'8 2.7
2017-Feb-22 11:33N 47°50' W 004°06'0 0.0
2017-Feb-22 10:33N 47°50' W 004°06'0 0.0
2017-Feb-22 02:33N 47°50' W 004°06'1 0.9
2017-Feb-22 01:33N 47°50' W 004°05'5 4.9
2017-Feb-22 00:34N 47°45' W 004°08'10 9.8
2017-Feb-21 23:33N 47°45' W 004°22'10 9.5
2017-Feb-21 22:32N 47°52' W 004°33'9 9.7
2017-Feb-21 21:34N 47°59' W 004°42'7 7.0
2017-Feb-21 20:34N 48°06' W 004°45'10 9.6
2017-Feb-21 19:34N 48°15' W 004°45'9 9.4
2017-Feb-21 18:34N 48°24' W 004°49'9 9.5
2017-Feb-21 17:33N 48°34' W 004°49'9 9.2
2017-Feb-21 16:34N 48°40' W 004°39'  
2017-Feb-19 03:14N 48°56' W 002°59'7 9.1
2017-Feb-19 02:30N 48°53' W 002°50'4 4.0
2017-Feb-19 01:29N 48°49' W 002°50'  
2017-Feb-14 17:16N 48°44' W 004°18'1013.5
2017-Feb-14 16:33N 48°42' W 004°33'1312.8
2017-Feb-14 15:33N 48°35' W 004°49'1212.3
2017-Feb-14 14:33N 48°23' W 004°49'1212.0
2017-Feb-14 13:33N 48°11' W 004°46'1211.8
2017-Feb-14 12:33N 47°59' W 004°42'  

Dump ship's entire track history